sensor_id;sensor_type;location;lat;lon;timestamp;pressure;altitude;pressure_sealevel;temperature;humidity
56681;BME280;42558;52.388;13.390;2023-12-29T00:00:11;100500.52;;;6.79;100.00
56681;BME280;42558;52.388;13.390;2023-12-29T00:02:38;100500.65;;;6.85;100.00
56681;BME280;42558;52.388;13.390;2023-12-29T00:05:07;100491.30;;;6.73;100.00
56681;BME280;42558;52.388;13.390;2023-12-29T00:07:35;100485.98;;;6.84;100.00
56681;BME280;42558;52.388;13.390;2023-12-29T00:10:04;100486.02;;;6.79;100.00
56681;BME280;42558;52.388;13.390;2023-12-29T00:12:31;100485.22;;;6.82;100.00
56681;BME280;42558;52.388;13.390;2023-12-29T00:15:00;100480.33;;;6.97;100.00
56681;BME280;42558;52.388;13.390;2023-12-29T00:17:28;100482.13;;;6.92;100.00
56681;BME280;42558;52.388;13.390;2023-12-29T00:19:58;100478.71;;;6.88;100.00
56681;BME280;42558;52.388;13.390;2023-12-29T00:22:25;100479.44;;;6.97;100.00
56681;BME280;42558;52.388;13.390;2023-12-29T00:24:54;100472.56;;;7.01;100.00
56681;BME280;42558;52.388;13.390;2023-12-29T00:27:22;100466.74;;;6.92;100.00
56681;BME280;42558;52.388;13.390;2023-12-29T00:29:50;100464.75;;;7.04;100.00
56681;BME280;42558;52.388;13.390;2023-12-29T00:32:19;100466.39;;;6.92;100.00
56681;BME280;42558;52.388;13.390;2023-12-29T00:34:47;100460.41;;;6.90;100.00
56681;BME280;42558;52.388;13.390;2023-12-29T00:37:16;100454.59;;;7.02;100.00
56681;BME280;42558;52.388;13.390;2023-12-29T00:39:44;100455.16;;;6.97;100.00
56681;BME280;42558;52.388;13.390;2023-12-29T00:42:12;100455.03;;;6.99;100.00
56681;BME280;42558;52.388;13.390;2023-12-29T00:44:41;100455.40;;;7.00;100.00
56681;BME280;42558;52.388;13.390;2023-12-29T00:47:09;100455.84;;;7.03;100.00
56681;BME280;42558;52.388;13.390;2023-12-29T00:49:39;100453.08;;;6.98;100.00
56681;BME280;42558;52.388;13.390;2023-12-29T00:52:09;100442.40;;;7.04;100.00
56681;BME280;42558;52.388;13.390;2023-12-29T00:54:37;100443.52;;;7.15;99.94
56681;BME280;42558;52.388;13.390;2023-12-29T00:57:06;100440.70;;;7.07;99.96
56681;BME280;42558;52.388;13.390;2023-12-29T00:59:37;100436.77;;;7.11;100.00
56681;BME280;42558;52.388;13.390;2023-12-29T01:02:09;100444.63;;;7.10;99.97
56681;BME280;42558;52.388;13.390;2023-12-29T01:04:39;100444.83;;;6.96;100.00
56681;BME280;42558;52.388;13.390;2023-12-29T01:07:09;100439.23;;;6.96;100.00
56681;BME280;42558;52.388;13.390;2023-12-29T01:09:39;100436.11;;;6.90;100.00
56681;BME280;42558;52.388;13.390;2023-12-29T01:12:09;100432.06;;;6.96;100.00
56681;BME280;42558;52.388;13.390;2023-12-29T01:14:38;100434.35;;;7.04;100.00
56681;BME280;42558;52.388;13.390;2023-12-29T01:17:07;100433.95;;;6.95;100.00
56681;BME280;42558;52.388;13.390;2023-12-29T01:19:37;100433.59;;;7.09;100.00
56681;BME280;42558;52.388;13.390;2023-12-29T01:22:06;100432.21;;;7.10;100.00
56681;BME280;42558;52.388;13.390;2023-12-29T01:24:36;100427.50;;;7.26;99.77
56681;BME280;42558;52.388;13.390;2023-12-29T01:27:14;100424.48;;;7.24;99.84
56681;BME280;42558;52.388;13.390;2023-12-29T01:29:44;100418.11;;;7.21;99.82
56681;BME280;42558;52.388;13.390;2023-12-29T01:32:12;100422.14;;;7.13;100.00
56681;BME280;42558;52.388;13.390;2023-12-29T01:34:41;100424.20;;;7.19;99.97
56681;BME280;42558;52.388;13.390;2023-12-29T01:37:09;100418.36;;;7.16;100.00
56681;BME280;42558;52.388;13.390;2023-12-29T01:39:37;100406.63;;;7.15;100.00
56681;BME280;42558;52.388;13.390;2023-12-29T01:42:06;100407.68;;;7.24;99.86
56681;BME280;42558;52.388;13.390;2023-12-29T01:44:34;100402.91;;;7.29;99.54
56681;BME280;42558;52.388;13.390;2023-12-29T01:47:11;100403.50;;;7.32;99.42
56681;BME280;42558;52.388;13.390;2023-12-29T01:49:48;100399.99;;;7.32;99.51
56681;BME280;42558;52.388;13.390;2023-12-29T01:52:19;100396.12;;;7.23;99.69
56681;BME280;42558;52.388;13.390;2023-12-29T01:54:50;100391.65;;;7.26;99.93
56681;BME280;42558;52.388;13.390;2023-12-29T01:57:22;100378.15;;;7.32;99.43
56681;BME280;42558;52.388;13.390;2023-12-29T01:59:52;100375.98;;;7.21;99.79
56681;BME280;42558;52.388;13.390;2023-12-29T02:02:22;100373.70;;;7.21;100.00
56681;BME280;42558;52.388;13.390;2023-12-29T02:04:51;100370.20;;;7.21;100.00
56681;BME280;42558;52.388;13.390;2023-12-29T02:07:21;100366.45;;;7.26;99.99
56681;BME280;42558;52.388;13.390;2023-12-29T02:09:51;100364.77;;;7.28;99.96
56681;BME280;42558;52.388;13.390;2023-12-29T02:12:21;100366.33;;;7.27;99.97
56681;BME280;42558;52.388;13.390;2023-12-29T02:14:52;100368.77;;;7.27;99.98
56681;BME280;42558;52.388;13.390;2023-12-29T02:17:32;100367.69;;;7.25;100.00
56681;BME280;42558;52.388;13.390;2023-12-29T02:20:04;100363.00;;;7.36;99.57
56681;BME280;42558;52.388;13.390;2023-12-29T02:22:36;100362.95;;;7.51;98.84
56681;BME280;42558;52.388;13.390;2023-12-29T02:25:06;100354.56;;;7.43;98.79
56681;BME280;42558;52.388;13.390;2023-12-29T02:27:50;100347.47;;;7.37;99.14
56681;BME280;42558;52.388;13.390;2023-12-29T02:30:34;100345.35;;;7.36;99.24
56681;BME280;42558;52.388;13.390;2023-12-29T02:33:12;100340.98;;;7.28;99.60
56681;BME280;42558;52.388;13.390;2023-12-29T02:35:45;100343.65;;;7.22;99.76
56681;BME280;42558;52.388;13.390;2023-12-29T02:38:15;100341.61;;;7.16;99.96
56681;BME280;42558;52.388;13.390;2023-12-29T02:40:46;100339.98;;;7.30;99.52
56681;BME280;42558;52.388;13.390;2023-12-29T02:43:15;100337.50;;;7.29;99.29
56681;BME280;42558;52.388;13.390;2023-12-29T02:45:45;100328.60;;;7.29;99.05
56681;BME280;42558;52.388;13.390;2023-12-29T02:48:13;100323.95;;;7.33;98.97
56681;BME280;42558;52.388;13.390;2023-12-29T02:50:42;100318.86;;;7.32;98.68
56681;BME280;42558;52.388;13.390;2023-12-29T02:53:11;100321.33;;;7.15;99.62
56681;BME280;42558;52.388;13.390;2023-12-29T02:55:39;100324.20;;;7.11;100.00
56681;BME280;42558;52.388;13.390;2023-12-29T02:58:09;100320.46;;;7.16;99.91
56681;BME280;42558;52.388;13.390;2023-12-29T03:00:35;100313.09;;;7.23;99.55
56681;BME280;42558;52.388;13.390;2023-12-29T03:03:04;100312.66;;;7.19;99.91
56681;BME280;42558;52.388;13.390;2023-12-29T03:05:32;100303.69;;;7.26;99.47
56681;BME280;42558;52.388;13.390;2023-12-29T03:08:01;100303.48;;;7.24;99.54
56681;BME280;42558;52.388;13.390;2023-12-29T03:10:29;100303.89;;;7.18;99.78
56681;BME280;42558;52.388;13.390;2023-12-29T03:12:57;100297.28;;;7.20;99.94
56681;BME280;42558;52.388;13.390;2023-12-29T03:15:26;100294.57;;;7.24;99.81
56681;BME280;42558;52.388;13.390;2023-12-29T03:17:54;100295.12;;;7.25;99.48
56681;BME280;42558;52.388;13.390;2023-12-29T03:20:23;100298.23;;;7.15;99.79
56681;BME280;42558;52.388;13.390;2023-12-29T03:22:51;100298.38;;;7.13;99.93
56681;BME280;42558;52.388;13.390;2023-12-29T03:25:20;100296.96;;;7.12;99.85
56681;BME280;42558;52.388;13.390;2023-12-29T03:27:48;100292.65;;;6.98;100.00
56681;BME280;42558;52.388;13.390;2023-12-29T03:30:16;100292.77;;;7.04;100.00
56681;BME280;42558;52.388;13.390;2023-12-29T03:32:45;100295.66;;;7.00;100.00
56681;BME280;42558;52.388;13.390;2023-12-29T03:35:13;100291.98;;;6.83;100.00
56681;BME280;42558;52.388;13.390;2023-12-29T03:37:42;100297.33;;;6.88;100.00
56681;BME280;42558;52.388;13.390;2023-12-29T03:40:14;100296.22;;;6.84;100.00
56681;BME280;42558;52.388;13.390;2023-12-29T03:42:42;100288.86;;;6.92;100.00
56681;BME280;42558;52.388;13.390;2023-12-29T03:45:10;100286.04;;;7.00;100.00
56681;BME280;42558;52.388;13.390;2023-12-29T03:47:38;100278.42;;;6.95;100.00
56681;BME280;42558;52.388;13.390;2023-12-29T03:50:08;100277.50;;;6.92;100.00
56681;BME280;42558;52.388;13.390;2023-12-29T03:52:35;100285.14;;;6.81;100.00
56681;BME280;42558;52.388;13.390;2023-12-29T03:55:04;100281.58;;;6.78;100.00
56681;BME280;42558;52.388;13.390;2023-12-29T03:57:32;100279.55;;;6.91;100.00
56681;BME280;42558;52.388;13.390;2023-12-29T04:00:00;100281.01;;;6.85;100.00
56681;BME280;42558;52.388;13.390;2023-12-29T04:02:29;100283.83;;;6.76;100.00
56681;BME280;42558;52.388;13.390;2023-12-29T04:04:58;100278.59;;;6.86;100.00
56681;BME280;42558;52.388;13.390;2023-12-29T04:07:30;100266.16;;;6.93;100.00
56681;BME280;42558;52.388;13.390;2023-12-29T04:09:59;100262.61;;;6.99;100.00
56681;BME280;42558;52.388;13.390;2023-12-29T04:12:28;100252.17;;;7.02;100.00
56681;BME280;42558;52.388;13.390;2023-12-29T04:14:57;100248.13;;;7.00;100.00
56681;BME280;42558;52.388;13.390;2023-12-29T04:17:27;100247.39;;;7.07;99.95
56681;BME280;42558;52.388;13.390;2023-12-29T04:19:56;100250.38;;;7.07;99.91
56681;BME280;42558;52.388;13.390;2023-12-29T04:22:25;100242.32;;;7.16;99.89
56681;BME280;42558;52.388;13.390;2023-12-29T04:24:55;100240.10;;;7.10;99.84
56681;BME280;42558;52.388;13.390;2023-12-29T04:27:24;100233.44;;;7.18;99.93
56681;BME280;42558;52.388;13.390;2023-12-29T04:29:53;100233.94;;;7.26;99.52
56681;BME280;42558;52.388;13.390;2023-12-29T04:32:22;100224.14;;;7.25;99.40
56681;BME280;42558;52.388;13.390;2023-12-29T04:34:52;100231.40;;;7.31;99.52
56681;BME280;42558;52.388;13.390;2023-12-29T04:37:21;100229.95;;;7.39;99.41
56681;BME280;42558;52.388;13.390;2023-12-29T04:39:50;100228.82;;;7.43;99.44
56681;BME280;42558;52.388;13.390;2023-12-29T04:42:19;100228.11;;;7.52;99.00
56681;BME280;42558;52.388;13.390;2023-12-29T04:44:49;100225.58;;;7.58;98.81
56681;BME280;42558;52.388;13.390;2023-12-29T04:47:18;100226.60;;;7.56;99.01
56681;BME280;42558;52.388;13.390;2023-12-29T04:49:47;100228.29;;;7.53;99.52
56681;BME280;42558;52.388;13.390;2023-12-29T04:52:17;100225.27;;;7.60;98.97
56681;BME280;42558;52.388;13.390;2023-12-29T04:54:46;100221.12;;;7.63;98.73
56681;BME280;42558;52.388;13.390;2023-12-29T04:57:15;100214.52;;;7.67;98.52
56681;BME280;42558;52.388;13.390;2023-12-29T04:59:45;100205.48;;;7.59;98.67
56681;BME280;42558;52.388;13.390;2023-12-29T05:02:14;100200.49;;;7.64;98.53
56681;BME280;42558;52.388;13.390;2023-12-29T05:04:43;100200.50;;;7.64;98.52
56681;BME280;42558;52.388;13.390;2023-12-29T05:07:13;100200.08;;;7.59;98.84
56681;BME280;42558;52.388;13.390;2023-12-29T05:09:42;100195.90;;;7.51;99.56
56681;BME280;42558;52.388;13.390;2023-12-29T05:12:12;100193.88;;;7.55;99.24
56681;BME280;42558;52.388;13.390;2023-12-29T05:14:41;100194.10;;;7.57;99.15
56681;BME280;42558;52.388;13.390;2023-12-29T05:17:10;100192.66;;;7.67;98.88
56681;BME280;42558;52.388;13.390;2023-12-29T05:19:38;100193.42;;;7.70;98.46
56681;BME280;42558;52.388;13.390;2023-12-29T05:22:07;100198.50;;;7.71;98.54
56681;BME280;42558;52.388;13.390;2023-12-29T05:24:35;100199.92;;;7.62;98.77
56681;BME280;42558;52.388;13.390;2023-12-29T05:27:04;100192.70;;;7.59;99.21
56681;BME280;42558;52.388;13.390;2023-12-29T05:29:32;100188.41;;;7.64;98.90
56681;BME280;42558;52.388;13.390;2023-12-29T05:32:00;100186.83;;;7.63;98.88
56681;BME280;42558;52.388;13.390;2023-12-29T05:34:29;100191.59;;;7.65;98.96
56681;BME280;42558;52.388;13.390;2023-12-29T05:36:57;100191.99;;;7.69;98.65
56681;BME280;42558;52.388;13.390;2023-12-29T05:39:26;100199.54;;;7.70;98.51
56681;BME280;42558;52.388;13.390;2023-12-29T05:41:54;100194.16;;;7.72;98.47
56681;BME280;42558;52.388;13.390;2023-12-29T05:44:23;100194.48;;;7.82;97.70
56681;BME280;42558;52.388;13.390;2023-12-29T05:46:51;100194.46;;;7.92;96.90
56681;BME280;42558;52.388;13.390;2023-12-29T05:49:25;100190.55;;;7.88;97.15
56681;BME280;42558;52.388;13.390;2023-12-29T05:51:55;100190.17;;;7.85;96.95
56681;BME280;42558;52.388;13.390;2023-12-29T05:54:24;100190.89;;;7.88;96.89
56681;BME280;42558;52.388;13.390;2023-12-29T05:56:53;100187.27;;;7.90;96.41
56681;BME280;42558;52.388;13.390;2023-12-29T05:59:23;100188.30;;;7.89;96.29
56681;BME280;42558;52.388;13.390;2023-12-29T06:01:52;100191.02;;;7.74;96.78
56681;BME280;42558;52.388;13.390;2023-12-29T06:04:22;100192.58;;;7.72;96.87
56681;BME280;42558;52.388;13.390;2023-12-29T06:06:51;100187.94;;;7.78;96.43
56681;BME280;42558;52.388;13.390;2023-12-29T06:09:20;100182.51;;;7.88;95.97
56681;BME280;42558;52.388;13.390;2023-12-29T06:11:50;100173.48;;;8.07;94.57
56681;BME280;42558;52.388;13.390;2023-12-29T06:14:19;100175.02;;;8.03;94.39
56681;BME280;42558;52.388;13.390;2023-12-29T06:16:48;100174.86;;;8.05;94.36
56681;BME280;42558;52.388;13.390;2023-12-29T06:19:18;100168.96;;;7.84;95.70
56681;BME280;42558;52.388;13.390;2023-12-29T06:21:47;100175.19;;;7.91;95.37
56681;BME280;42558;52.388;13.390;2023-12-29T06:24:16;100162.10;;;7.94;95.19
56681;BME280;42558;52.388;13.390;2023-12-29T06:26:47;100157.00;;;7.91;95.36
56681;BME280;42558;52.388;13.390;2023-12-29T06:29:16;100142.83;;;7.91;95.55
56681;BME280;42558;52.388;13.390;2023-12-29T06:31:45;100142.39;;;7.98;95.08
56681;BME280;42558;52.388;13.390;2023-12-29T06:34:15;100131.56;;;8.13;94.10
56681;BME280;42558;52.388;13.390;2023-12-29T06:36:44;100147.60;;;8.08;94.51
56681;BME280;42558;52.388;13.390;2023-12-29T06:39:14;100169.64;;;8.07;94.46
56681;BME280;42558;52.388;13.390;2023-12-29T06:41:43;100175.18;;;8.14;94.27
56681;BME280;42558;52.388;13.390;2023-12-29T06:44:12;100178.64;;;8.23;93.88
56681;BME280;42558;52.388;13.390;2023-12-29T06:46:41;100200.44;;;8.18;94.07
56681;BME280;42558;52.388;13.390;2023-12-29T06:49:11;100199.59;;;8.20;93.92
56681;BME280;42558;52.388;13.390;2023-12-29T06:51:40;100201.12;;;8.16;94.67
56681;BME280;42558;52.388;13.390;2023-12-29T06:54:10;100206.05;;;8.07;95.20
56681;BME280;42558;52.388;13.390;2023-12-29T06:56:39;100208.66;;;8.06;95.20
56681;BME280;42558;52.388;13.390;2023-12-29T06:59:08;100196.04;;;8.16;94.78
56681;BME280;42558;52.388;13.390;2023-12-29T07:01:40;100202.54;;;8.17;94.52
56681;BME280;42558;52.388;13.390;2023-12-29T07:04:10;100202.73;;;8.20;94.27
56681;BME280;42558;52.388;13.390;2023-12-29T07:06:41;100200.41;;;8.16;94.49
56681;BME280;42558;52.388;13.390;2023-12-29T07:09:10;100205.30;;;8.15;95.06
56681;BME280;42558;52.388;13.390;2023-12-29T07:11:39;100212.89;;;8.19;94.72
56681;BME280;42558;52.388;13.390;2023-12-29T07:14:09;100202.58;;;8.21;94.83
56681;BME280;42558;52.388;13.390;2023-12-29T07:16:38;100201.67;;;8.18;94.76
56681;BME280;42558;52.388;13.390;2023-12-29T07:19:07;100203.28;;;8.20;94.64
56681;BME280;42558;52.388;13.390;2023-12-29T07:21:37;100201.40;;;8.24;94.18
56681;BME280;42558;52.388;13.390;2023-12-29T07:24:06;100201.15;;;8.18;94.78
56681;BME280;42558;52.388;13.390;2023-12-29T07:26:35;100197.04;;;8.12;95.33
56681;BME280;42558;52.388;13.390;2023-12-29T07:29:07;100203.29;;;8.22;94.72
56681;BME280;42558;52.388;13.390;2023-12-29T07:31:39;100207.14;;;8.22;94.65
56681;BME280;42558;52.388;13.390;2023-12-29T07:34:09;100206.65;;;8.24;94.59
56681;BME280;42558;52.388;13.390;2023-12-29T07:36:39;100200.45;;;8.18;95.05
56681;BME280;42558;52.388;13.390;2023-12-29T07:39:08;100205.21;;;8.21;94.69
56681;BME280;42558;52.388;13.390;2023-12-29T07:41:43;100209.44;;;8.11;95.65
56681;BME280;42558;52.388;13.390;2023-12-29T07:44:12;100206.52;;;8.15;95.29
56681;BME280;42558;52.388;13.390;2023-12-29T07:46:43;100208.02;;;8.22;94.94
56681;BME280;42558;52.388;13.390;2023-12-29T07:49:16;100196.18;;;8.14;95.01
56681;BME280;42558;52.388;13.390;2023-12-29T07:51:46;100203.49;;;8.00;95.95
56681;BME280;42558;52.388;13.390;2023-12-29T07:54:15;100204.03;;;8.12;95.09
56681;BME280;42558;52.388;13.390;2023-12-29T07:56:45;100200.88;;;8.12;95.13
56681;BME280;42558;52.388;13.390;2023-12-29T07:59:14;100206.91;;;8.05;95.35
56681;BME280;42558;52.388;13.390;2023-12-29T08:01:43;100208.98;;;8.15;94.85
56681;BME280;42558;52.388;13.390;2023-12-29T08:04:13;100215.90;;;8.10;95.13
56681;BME280;42558;52.388;13.390;2023-12-29T08:06:44;100207.91;;;8.01;95.65
56681;BME280;42558;52.388;13.390;2023-12-29T08:09:14;100215.88;;;8.08;95.19
56681;BME280;42558;52.388;13.390;2023-12-29T08:11:43;100216.73;;;8.06;95.22
56681;BME280;42558;52.388;13.390;2023-12-29T08:14:12;100214.39;;;8.02;95.52
56681;BME280;42558;52.388;13.390;2023-12-29T08:16:42;100216.58;;;8.08;95.25
56681;BME280;42558;52.388;13.390;2023-12-29T08:19:12;100226.28;;;8.02;95.43
56681;BME280;42558;52.388;13.390;2023-12-29T08:21:41;100231.32;;;8.10;95.29
56681;BME280;42558;52.388;13.390;2023-12-29T08:24:10;100231.80;;;8.19;94.86
56681;BME280;42558;52.388;13.390;2023-12-29T08:26:47;100230.05;;;8.19;94.96
56681;BME280;42558;52.388;13.390;2023-12-29T08:29:16;100233.30;;;8.14;95.11
56681;BME280;42558;52.388;13.390;2023-12-29T08:31:47;100229.08;;;8.25;95.16
56681;BME280;42558;52.388;13.390;2023-12-29T08:34:17;100224.63;;;8.32;94.82
56681;BME280;42558;52.388;13.390;2023-12-29T08:36:48;100220.27;;;8.33;94.37
56681;BME280;42558;52.388;13.390;2023-12-29T08:39:18;100227.36;;;8.37;94.63
56681;BME280;42558;52.388;13.390;2023-12-29T08:41:46;100231.74;;;8.28;94.94
56681;BME280;42558;52.388;13.390;2023-12-29T08:44:15;100237.47;;;8.23;95.30
56681;BME280;42558;52.388;13.390;2023-12-29T08:46:43;100250.86;;;8.28;95.40
56681;BME280;42558;52.388;13.390;2023-12-29T08:49:11;100242.48;;;8.41;94.84
56681;BME280;42558;52.388;13.390;2023-12-29T08:51:40;100251.07;;;8.42;94.75
56681;BME280;42558;52.388;13.390;2023-12-29T08:54:08;100255.50;;;8.44;94.83
56681;BME280;42558;52.388;13.390;2023-12-29T08:56:37;100252.17;;;8.45;94.97
56681;BME280;42558;52.388;13.390;2023-12-29T08:59:05;100239.85;;;8.41;95.06
56681;BME280;42558;52.388;13.390;2023-12-29T09:01:32;100244.73;;;8.39;95.72
56681;BME280;42558;52.388;13.390;2023-12-29T09:04:01;100252.23;;;8.51;95.10
56681;BME280;42558;52.388;13.390;2023-12-29T09:06:29;100247.61;;;8.57;94.51
56681;BME280;42558;52.388;13.390;2023-12-29T09:08:58;100234.84;;;8.60;94.73
56681;BME280;42558;52.388;13.390;2023-12-29T09:11:26;100235.54;;;8.59;94.64
56681;BME280;42558;52.388;13.390;2023-12-29T09:13:54;100241.54;;;8.62;94.59
56681;BME280;42558;52.388;13.390;2023-12-29T09:16:23;100247.04;;;8.67;94.36
56681;BME280;42558;52.388;13.390;2023-12-29T09:18:51;100245.63;;;8.67;94.93
56681;BME280;42558;52.388;13.390;2023-12-29T09:21:20;100243.38;;;8.69;94.34
56681;BME280;42558;52.388;13.390;2023-12-29T09:23:48;100237.21;;;8.80;93.63
56681;BME280;42558;52.388;13.390;2023-12-29T09:26:17;100244.36;;;8.92;93.30
56681;BME280;42558;52.388;13.390;2023-12-29T09:28:45;100246.84;;;9.09;92.90
56681;BME280;42558;52.388;13.390;2023-12-29T09:31:13;100245.00;;;9.17;92.37
56681;BME280;42558;52.388;13.390;2023-12-29T09:33:42;100242.59;;;9.40;92.06
56681;BME280;42558;52.388;13.390;2023-12-29T09:36:10;100238.45;;;9.65;91.01
56681;BME280;42558;52.388;13.390;2023-12-29T09:38:39;100242.63;;;10.03;88.40
56681;BME280;42558;52.388;13.390;2023-12-29T09:41:14;100234.95;;;10.12;87.94
56681;BME280;42558;52.388;13.390;2023-12-29T09:43:48;100241.46;;;10.34;86.94
56681;BME280;42558;52.388;13.390;2023-12-29T09:46:19;100228.30;;;11.29;84.44
56681;BME280;42558;52.388;13.390;2023-12-29T09:48:52;100220.18;;;11.15;82.74
56681;BME280;42558;52.388;13.390;2023-12-29T09:51:25;100222.30;;;11.23;83.05
56681;BME280;42558;52.388;13.390;2023-12-29T09:53:56;100228.56;;;10.92;83.27
56681;BME280;42558;52.388;13.390;2023-12-29T09:56:28;100219.66;;;11.14;83.36
56681;BME280;42558;52.388;13.390;2023-12-29T09:58:58;100222.20;;;11.87;80.28
56681;BME280;42558;52.388;13.390;2023-12-29T10:01:28;100212.36;;;11.83;79.30
56681;BME280;42558;52.388;13.390;2023-12-29T10:03:59;100211.86;;;12.55;76.87
56681;BME280;42558;52.388;13.390;2023-12-29T10:06:34;100221.11;;;12.22;76.94
56681;BME280;42558;52.388;13.390;2023-12-29T10:09:10;100239.15;;;10.65;82.00
56681;BME280;42558;52.388;13.390;2023-12-29T10:11:45;100232.10;;;10.04;85.98
56681;BME280;42558;52.388;13.390;2023-12-29T10:14:26;100225.82;;;9.89;87.37
56681;BME280;42558;52.388;13.390;2023-12-29T10:17:35;100229.86;;;10.11;86.49
56681;BME280;42558;52.388;13.390;2023-12-29T10:20:44;100213.27;;;11.02;83.38
56681;BME280;42558;52.388;13.390;2023-12-29T10:23:25;100207.55;;;13.41;77.13
56681;BME280;42558;52.388;13.390;2023-12-29T10:25:57;100209.37;;;13.62;73.53
56681;BME280;42558;52.388;13.390;2023-12-29T10:28:26;100194.09;;;14.45;71.01
56681;BME280;42558;52.388;13.390;2023-12-29T10:30:56;100184.75;;;14.43;68.76
56681;BME280;42558;52.388;13.390;2023-12-29T10:33:25;100185.41;;;14.61;69.34
56681;BME280;42558;52.388;13.390;2023-12-29T10:35:58;100170.67;;;15.19;65.62
56681;BME280;42558;52.388;13.390;2023-12-29T10:38:33;100163.30;;;14.76;66.36
56681;BME280;42558;52.388;13.390;2023-12-29T10:41:17;100174.42;;;13.95;68.15
56681;BME280;42558;52.388;13.390;2023-12-29T10:43:47;100182.60;;;12.85;71.78
56681;BME280;42558;52.388;13.390;2023-12-29T10:46:21;100192.19;;;11.09;79.06
56681;BME280;42558;52.388;13.390;2023-12-29T10:48:50;100187.42;;;11.01;80.77
56681;BME280;42558;52.388;13.390;2023-12-29T10:51:27;100192.37;;;11.07;81.29
56681;BME280;42558;52.388;13.390;2023-12-29T10:53:58;100194.14;;;11.12;81.95
56681;BME280;42558;52.388;13.390;2023-12-29T10:56:27;100187.58;;;10.91;81.52
56681;BME280;42558;52.388;13.390;2023-12-29T10:59:05;100179.33;;;10.99;81.70
56681;BME280;42558;52.388;13.390;2023-12-29T11:01:35;100178.18;;;11.58;80.62
56681;BME280;42558;52.388;13.390;2023-12-29T11:04:06;100187.00;;;12.57;76.95
56681;BME280;42558;52.388;13.390;2023-12-29T11:06:44;100195.41;;;11.85;77.33
56681;BME280;42558;52.388;13.390;2023-12-29T11:09:30;100198.16;;;11.01;81.16
56681;BME280;42558;52.388;13.390;2023-12-29T11:12:03;100207.40;;;10.75;82.89
56681;BME280;42558;52.388;13.390;2023-12-29T11:14:33;100209.94;;;10.55;83.75
56681;BME280;42558;52.388;13.390;2023-12-29T11:17:03;100208.30;;;10.42;84.69
56681;BME280;42558;52.388;13.390;2023-12-29T11:19:33;100218.08;;;10.30;84.98
56681;BME280;42558;52.388;13.390;2023-12-29T11:22:04;100211.34;;;10.24;84.98
56681;BME280;42558;52.388;13.390;2023-12-29T11:24:33;100207.08;;;10.18;86.45
56681;BME280;42558;52.388;13.390;2023-12-29T11:27:12;100210.73;;;10.13;86.12
56681;BME280;42558;52.388;13.390;2023-12-29T11:29:42;100206.67;;;10.10;86.61
56681;BME280;42558;52.388;13.390;2023-12-29T11:32:19;100196.81;;;10.08;86.49
56681;BME280;42558;52.388;13.390;2023-12-29T11:35:02;100195.41;;;10.07;86.93
56681;BME280;42558;52.388;13.390;2023-12-29T11:41:12;100187.51;;;10.08;86.97
56681;BME280;42558;52.388;13.390;2023-12-29T11:43:43;100184.33;;;10.03;87.19
56681;BME280;42558;52.388;13.390;2023-12-29T11:46:40;100187.99;;;10.02;87.50
56681;BME280;42558;52.388;13.390;2023-12-29T11:49:12;100184.60;;;9.91;88.62
56681;BME280;42558;52.388;13.390;2023-12-29T11:51:47;100174.77;;;9.93;87.96
56681;BME280;42558;52.388;13.390;2023-12-29T11:54:25;100168.77;;;9.89;87.97
56681;BME280;42558;52.388;13.390;2023-12-29T11:56:55;100173.17;;;9.91;88.41
56681;BME280;42558;52.388;13.390;2023-12-29T11:59:26;100174.05;;;9.90;88.47
56681;BME280;42558;52.388;13.390;2023-12-29T12:01:58;100169.33;;;9.92;87.99
56681;BME280;42558;52.388;13.390;2023-12-29T12:04:42;100168.84;;;9.99;87.61
56681;BME280;42558;52.388;13.390;2023-12-29T12:09:51;100172.04;;;10.04;87.47
56681;BME280;42558;52.388;13.390;2023-12-29T12:12:42;100166.04;;;10.00;87.58
56681;BME280;42558;52.388;13.390;2023-12-29T12:18:04;100160.70;;;9.90;88.59
56681;BME280;42558;52.388;13.390;2023-12-29T12:20:38;100181.11;;;9.96;87.69
56681;BME280;42558;52.388;13.390;2023-12-29T12:23:17;100188.13;;;9.95;88.16
56681;BME280;42558;52.388;13.390;2023-12-29T12:25:46;100180.44;;;9.99;88.32
56681;BME280;42558;52.388;13.390;2023-12-29T12:28:15;100170.88;;;9.90;89.83
56681;BME280;42558;52.388;13.390;2023-12-29T12:30:45;100169.23;;;9.78;91.68
56681;BME280;42558;52.388;13.390;2023-12-29T12:33:15;100161.36;;;9.84;90.88
56681;BME280;42558;52.388;13.390;2023-12-29T12:35:45;100163.35;;;9.91;89.66
56681;BME280;42558;52.388;13.390;2023-12-29T12:38:17;100164.05;;;9.90;90.21
56681;BME280;42558;52.388;13.390;2023-12-29T12:40:50;100164.23;;;9.91;90.08
56681;BME280;42558;52.388;13.390;2023-12-29T12:43:25;100165.46;;;9.91;89.99
56681;BME280;42558;52.388;13.390;2023-12-29T12:46:00;100162.96;;;9.87;90.16
56681;BME280;42558;52.388;13.390;2023-12-29T12:48:49;100161.73;;;9.86;90.43
56681;BME280;42558;52.388;13.390;2023-12-29T12:51:21;100160.13;;;9.82;91.15
56681;BME280;42558;52.388;13.390;2023-12-29T12:53:51;100158.39;;;9.85;90.77
56681;BME280;42558;52.388;13.390;2023-12-29T12:56:21;100158.73;;;9.85;91.09
56681;BME280;42558;52.388;13.390;2023-12-29T12:58:50;100156.58;;;9.76;92.72
56681;BME280;42558;52.388;13.390;2023-12-29T13:01:18;100151.10;;;9.71;93.10
56681;BME280;42558;52.388;13.390;2023-12-29T13:03:47;100141.27;;;9.71;93.13
56681;BME280;42558;52.388;13.390;2023-12-29T13:06:15;100142.33;;;9.73;93.25
56681;BME280;42558;52.388;13.390;2023-12-29T13:08:44;100141.30;;;9.77;92.81
56681;BME280;42558;52.388;13.390;2023-12-29T13:11:11;100139.21;;;9.81;92.39